sensor_id;sensor_type;location;lat;lon;timestamp;P1;durP1;ratioP1;P2;durP2;ratioP2
50012;SDS011;35901;48.694;9.476;2023-02-05T00:00:40;21.47;;;13.90;;
50012;SDS011;35901;48.694;9.476;2023-02-05T00:03:06;18.53;;;12.07;;
50012;SDS011;35901;48.694;9.476;2023-02-05T00:05:35;20.63;;;13.93;;
50012;SDS011;35901;48.694;9.476;2023-02-05T00:08:03;16.43;;;12.20;;
50012;SDS011;35901;48.694;9.476;2023-02-05T00:10:29;20.37;;;12.93;;
50012;SDS011;35901;48.694;9.476;2023-02-05T00:12:55;15.37;;;12.47;;
50012;SDS011;35901;48.694;9.476;2023-02-05T00:15:21;16.60;;;11.67;;
50012;SDS011;35901;48.694;9.476;2023-02-05T00:17:47;15.43;;;12.23;;
50012;SDS011;35901;48.694;9.476;2023-02-05T00:20:12;19.57;;;12.57;;
50012;SDS011;35901;48.694;9.476;2023-02-05T00:22:38;18.00;;;11.70;;
50012;SDS011;35901;48.694;9.476;2023-02-05T00:25:04;16.03;;;12.27;;
50012;SDS011;35901;48.694;9.476;2023-02-05T00:27:31;21.27;;;14.10;;
50012;SDS011;35901;48.694;9.476;2023-02-05T00:29:57;16.50;;;12.60;;
50012;SDS011;35901;48.694;9.476;2023-02-05T00:32:23;20.33;;;12.97;;
50012;SDS011;35901;48.694;9.476;2023-02-05T00:34:48;16.80;;;12.47;;
50012;SDS011;35901;48.694;9.476;2023-02-05T00:37:14;16.43;;;11.37;;
50012;SDS011;35901;48.694;9.476;2023-02-05T00:39:41;21.00;;;12.40;;
50012;SDS011;35901;48.694;9.476;2023-02-05T00:42:06;17.97;;;14.03;;
50012;SDS011;35901;48.694;9.476;2023-02-05T00:44:33;17.87;;;12.30;;
50012;SDS011;35901;48.694;9.476;2023-02-05T00:46:58;19.07;;;12.67;;
50012;SDS011;35901;48.694;9.476;2023-02-05T00:49:24;20.23;;;13.30;;
50012;SDS011;35901;48.694;9.476;2023-02-05T00:51:50;18.40;;;12.60;;
50012;SDS011;35901;48.694;9.476;2023-02-05T00:54:16;17.83;;;12.87;;
50012;SDS011;35901;48.694;9.476;2023-02-05T00:56:41;21.13;;;13.17;;
50012;SDS011;35901;48.694;9.476;2023-02-05T00:59:07;20.83;;;14.60;;
50012;SDS011;35901;48.694;9.476;2023-02-05T01:01:33;17.90;;;13.10;;
50012;SDS011;35901;48.694;9.476;2023-02-05T01:03:58;17.80;;;13.23;;
50012;SDS011;35901;48.694;9.476;2023-02-05T01:06:24;21.10;;;13.87;;
50012;SDS011;35901;48.694;9.476;2023-02-05T01:08:50;21.63;;;13.60;;
50012;SDS011;35901;48.694;9.476;2023-02-05T01:11:16;19.47;;;13.53;;
50012;SDS011;35901;48.694;9.476;2023-02-05T01:13:41;19.33;;;12.70;;
50012;SDS011;35901;48.694;9.476;2023-02-05T01:16:07;13.20;;;11.27;;
50012;SDS011;35901;48.694;9.476;2023-02-05T01:18:35;18.03;;;12.10;;
50012;SDS011;35901;48.694;9.476;2023-02-05T01:21:01;20.40;;;13.03;;
50012;SDS011;35901;48.694;9.476;2023-02-05T01:23:27;16.60;;;12.67;;
50012;SDS011;35901;48.694;9.476;2023-02-05T01:25:53;17.03;;;11.80;;
50012;SDS011;35901;48.694;9.476;2023-02-05T01:28:18;16.00;;;11.73;;
50012;SDS011;35901;48.694;9.476;2023-02-05T01:30:48;13.53;;;11.10;;
50012;SDS011;35901;48.694;9.476;2023-02-05T01:33:14;18.30;;;12.70;;
50012;SDS011;35901;48.694;9.476;2023-02-05T01:35:40;16.30;;;12.33;;
50012;SDS011;35901;48.694;9.476;2023-02-05T01:38:08;13.77;;;11.57;;
50012;SDS011;35901;48.694;9.476;2023-02-05T01:40:37;17.50;;;12.40;;
50012;SDS011;35901;48.694;9.476;2023-02-05T01:43:05;19.97;;;13.70;;
50012;SDS011;35901;48.694;9.476;2023-02-05T01:48:26;16.30;;;12.43;;
50012;SDS011;35901;48.694;9.476;2023-02-05T01:50:57;17.07;;;13.40;;
50012;SDS011;35901;48.694;9.476;2023-02-05T01:53:30;17.77;;;13.67;;
50012;SDS011;35901;48.694;9.476;2023-02-05T01:58:34;15.77;;;12.97;;
50012;SDS011;35901;48.694;9.476;2023-02-05T02:01:05;18.00;;;12.30;;
50012;SDS011;35901;48.694;9.476;2023-02-05T02:03:31;15.73;;;12.50;;
50012;SDS011;35901;48.694;9.476;2023-02-05T02:05:57;16.77;;;11.70;;
50012;SDS011;35901;48.694;9.476;2023-02-05T02:08:23;15.43;;;12.30;;
50012;SDS011;35901;48.694;9.476;2023-02-05T02:10:50;16.17;;;11.87;;
50012;SDS011;35901;48.694;9.476;2023-02-05T02:13:18;12.30;;;10.50;;
50012;SDS011;35901;48.694;9.476;2023-02-05T02:15:46;15.63;;;10.97;;
50012;SDS011;35901;48.694;9.476;2023-02-05T02:18:14;18.73;;;11.67;;
50012;SDS011;35901;48.694;9.476;2023-02-05T02:21:11;16.07;;;11.80;;
50012;SDS011;35901;48.694;9.476;2023-02-05T02:26:57;13.33;;;10.23;;
50012;SDS011;35901;48.694;9.476;2023-02-05T02:29:37;17.87;;;11.13;;
50012;SDS011;35901;48.694;9.476;2023-02-05T02:32:23;13.23;;;10.30;;
50012;SDS011;35901;48.694;9.476;2023-02-05T02:35:04;14.17;;;11.23;;
50012;SDS011;35901;48.694;9.476;2023-02-05T02:37:36;13.73;;;11.17;;
50012;SDS011;35901;48.694;9.476;2023-02-05T02:40:20;13.50;;;11.43;;
50012;SDS011;35901;48.694;9.476;2023-02-05T02:45:25;19.37;;;13.83;;
50012;SDS011;35901;48.694;9.476;2023-02-05T02:47:54;19.77;;;12.80;;
50012;SDS011;35901;48.694;9.476;2023-02-05T02:50:27;18.70;;;12.70;;
50012;SDS011;35901;48.694;9.476;2023-02-05T02:52:59;20.97;;;13.87;;
50012;SDS011;35901;48.694;9.476;2023-02-05T02:55:28;19.53;;;12.33;;
50012;SDS011;35901;48.694;9.476;2023-02-05T02:57:59;19.27;;;12.57;;
50012;SDS011;35901;48.694;9.476;2023-02-05T03:00:28;26.10;;;14.23;;
50012;SDS011;35901;48.694;9.476;2023-02-05T03:02:57;16.37;;;11.87;;
50012;SDS011;35901;48.694;9.476;2023-02-05T03:05:27;19.40;;;13.33;;
50012;SDS011;35901;48.694;9.476;2023-02-05T03:07:56;22.10;;;13.27;;
50012;SDS011;35901;48.694;9.476;2023-02-05T03:10:47;16.47;;;11.77;;
50012;SDS011;35901;48.694;9.476;2023-02-05T03:13:20;18.63;;;12.90;;
50012;SDS011;35901;48.694;9.476;2023-02-05T03:15:52;18.20;;;12.33;;
50012;SDS011;35901;48.694;9.476;2023-02-05T03:18:21;14.33;;;12.03;;
50012;SDS011;35901;48.694;9.476;2023-02-05T03:21:11;16.80;;;12.20;;
50012;SDS011;35901;48.694;9.476;2023-02-05T03:23:36;14.90;;;11.17;;
50012;SDS011;35901;48.694;9.476;2023-02-05T03:26:02;18.33;;;12.70;;
50012;SDS011;35901;48.694;9.476;2023-02-05T03:28:37;17.40;;;12.67;;
50012;SDS011;35901;48.694;9.476;2023-02-05T03:31:19;15.70;;;11.30;;
50012;SDS011;35901;48.694;9.476;2023-02-05T03:34:03;15.17;;;11.97;;
50012;SDS011;35901;48.694;9.476;2023-02-05T03:36:48;13.70;;;10.37;;
50012;SDS011;35901;48.694;9.476;2023-02-05T03:45:16;13.00;;;10.67;;
50012;SDS011;35901;48.694;9.476;2023-02-05T03:50:40;16.30;;;10.77;;
50012;SDS011;35901;48.694;9.476;2023-02-05T03:53:25;13.90;;;10.77;;
50012;SDS011;35901;48.694;9.476;2023-02-05T03:56:15;14.23;;;10.77;;
50012;SDS011;35901;48.694;9.476;2023-02-05T03:58:47;16.03;;;11.73;;
50012;SDS011;35901;48.694;9.476;2023-02-05T04:01:17;16.87;;;10.60;;
50012;SDS011;35901;48.694;9.476;2023-02-05T04:03:45;16.23;;;11.50;;
50012;SDS011;35901;48.694;9.476;2023-02-05T04:06:11;18.63;;;12.33;;
50012;SDS011;35901;48.694;9.476;2023-02-05T04:08:37;14.27;;;11.80;;
50012;SDS011;35901;48.694;9.476;2023-02-05T04:11:03;16.30;;;11.47;;
50012;SDS011;35901;48.694;9.476;2023-02-05T04:13:31;15.57;;;12.60;;
50012;SDS011;35901;48.694;9.476;2023-02-05T04:15:56;16.30;;;11.50;;
50012;SDS011;35901;48.694;9.476;2023-02-05T04:18:22;16.30;;;12.00;;
50012;SDS011;35901;48.694;9.476;2023-02-05T04:20:49;17.00;;;11.60;;
50012;SDS011;35901;48.694;9.476;2023-02-05T04:23:18;13.50;;;10.50;;
50012;SDS011;35901;48.694;9.476;2023-02-05T04:25:44;14.93;;;10.90;;
50012;SDS011;35901;48.694;9.476;2023-02-05T04:28:14;13.93;;;11.20;;
50012;SDS011;35901;48.694;9.476;2023-02-05T04:30:40;16.00;;;12.33;;
50012;SDS011;35901;48.694;9.476;2023-02-05T04:33:08;14.53;;;10.87;;
50012;SDS011;35901;48.694;9.476;2023-02-05T04:35:34;17.47;;;12.30;;
50012;SDS011;35901;48.694;9.476;2023-02-05T04:38:00;14.00;;;10.80;;
50012;SDS011;35901;48.694;9.476;2023-02-05T04:40:26;15.80;;;11.80;;
50012;SDS011;35901;48.694;9.476;2023-02-05T04:42:52;15.40;;;11.43;;
50012;SDS011;35901;48.694;9.476;2023-02-05T04:45:17;14.23;;;10.77;;
50012;SDS011;35901;48.694;9.476;2023-02-05T04:47:43;14.17;;;10.97;;
50012;SDS011;35901;48.694;9.476;2023-02-05T04:50:09;16.70;;;12.27;;
50012;SDS011;35901;48.694;9.476;2023-02-05T04:52:35;16.20;;;11.33;;
50012;SDS011;35901;48.694;9.476;2023-02-05T04:55:00;17.00;;;11.87;;
50012;SDS011;35901;48.694;9.476;2023-02-05T05:00:11;17.43;;;13.00;;
50012;SDS011;35901;48.694;9.476;2023-02-05T05:02:37;18.10;;;12.43;;
50012;SDS011;35901;48.694;9.476;2023-02-05T05:05:03;15.30;;;11.43;;
50012;SDS011;35901;48.694;9.476;2023-02-05T05:07:29;12.77;;;10.73;;
50012;SDS011;35901;48.694;9.476;2023-02-05T05:09:55;16.50;;;11.73;;
50012;SDS011;35901;48.694;9.476;2023-02-05T05:12:20;16.50;;;12.20;;
50012;SDS011;35901;48.694;9.476;2023-02-05T05:14:46;15.83;;;11.83;;
50012;SDS011;35901;48.694;9.476;2023-02-05T05:17:12;16.07;;;10.90;;
50012;SDS011;35901;48.694;9.476;2023-02-05T05:19:38;19.43;;;13.00;;
50012;SDS011;35901;48.694;9.476;2023-02-05T05:22:04;19.97;;;12.70;;
50012;SDS011;35901;48.694;9.476;2023-02-05T05:24:30;20.73;;;13.57;;
50012;SDS011;35901;48.694;9.476;2023-02-05T05:26:56;14.60;;;12.47;;
50012;SDS011;35901;48.694;9.476;2023-02-05T05:29:23;16.47;;;12.63;;
50012;SDS011;35901;48.694;9.476;2023-02-05T05:31:50;18.30;;;13.67;;
50012;SDS011;35901;48.694;9.476;2023-02-05T05:34:16;19.40;;;12.00;;
50012;SDS011;35901;48.694;9.476;2023-02-05T05:36:42;15.73;;;12.00;;
50012;SDS011;35901;48.694;9.476;2023-02-05T05:39:08;14.73;;;11.70;;
50012;SDS011;35901;48.694;9.476;2023-02-05T05:41:53;14.83;;;12.03;;
50012;SDS011;35901;48.694;9.476;2023-02-05T05:44:37;14.77;;;11.07;;
50012;SDS011;35901;48.694;9.476;2023-02-05T05:47:03;17.03;;;12.33;;
50012;SDS011;35901;48.694;9.476;2023-02-05T05:49:28;14.13;;;12.13;;
50012;SDS011;35901;48.694;9.476;2023-02-05T05:51:54;16.23;;;11.23;;
50012;SDS011;35901;48.694;9.476;2023-02-05T05:54:19;15.03;;;11.67;;
50012;SDS011;35901;48.694;9.476;2023-02-05T05:56:45;18.40;;;11.90;;
50012;SDS011;35901;48.694;9.476;2023-02-05T05:59:11;13.53;;;10.03;;
50012;SDS011;35901;48.694;9.476;2023-02-05T06:01:37;15.67;;;10.67;;
50012;SDS011;35901;48.694;9.476;2023-02-05T06:04:02;13.43;;;11.30;;
50012;SDS011;35901;48.694;9.476;2023-02-05T06:06:28;11.73;;;9.70;;
50012;SDS011;35901;48.694;9.476;2023-02-05T06:08:54;15.53;;;11.40;;
50012;SDS011;35901;48.694;9.476;2023-02-05T06:11:19;16.13;;;11.60;;
50012;SDS011;35901;48.694;9.476;2023-02-05T06:13:45;15.17;;;10.50;;
50012;SDS011;35901;48.694;9.476;2023-02-05T06:16:11;14.37;;;11.10;;
50012;SDS011;35901;48.694;9.476;2023-02-05T06:18:36;14.53;;;12.33;;
50012;SDS011;35901;48.694;9.476;2023-02-05T06:21:02;15.37;;;11.80;;
50012;SDS011;35901;48.694;9.476;2023-02-05T06:23:30;15.23;;;11.30;;
50012;SDS011;35901;48.694;9.476;2023-02-05T06:25:56;16.50;;;11.53;;
50012;SDS011;35901;48.694;9.476;2023-02-05T06:28:22;14.37;;;11.30;;
50012;SDS011;35901;48.694;9.476;2023-02-05T06:30:48;13.77;;;9.80;;
50012;SDS011;35901;48.694;9.476;2023-02-05T06:33:14;14.47;;;10.60;;
50012;SDS011;35901;48.694;9.476;2023-02-05T06:35:39;13.90;;;10.77;;
50012;SDS011;35901;48.694;9.476;2023-02-05T06:38:06;15.63;;;12.20;;
50012;SDS011;35901;48.694;9.476;2023-02-05T06:40:32;16.63;;;11.83;;
50012;SDS011;35901;48.694;9.476;2023-02-05T06:42:58;16.27;;;12.00;;
50012;SDS011;35901;48.694;9.476;2023-02-05T06:45:23;14.70;;;11.97;;
50012;SDS011;35901;48.694;9.476;2023-02-05T06:47:49;14.80;;;11.60;;
50012;SDS011;35901;48.694;9.476;2023-02-05T06:50:17;13.83;;;11.87;;
50012;SDS011;35901;48.694;9.476;2023-02-05T06:52:44;14.80;;;11.70;;
50012;SDS011;35901;48.694;9.476;2023-02-05T06:55:09;18.27;;;11.73;;
50012;SDS011;35901;48.694;9.476;2023-02-05T06:57:35;14.13;;;9.60;;
50012;SDS011;35901;48.694;9.476;2023-02-05T07:00:01;13.43;;;10.90;;
50012;SDS011;35901;48.694;9.476;2023-02-05T07:02:28;17.87;;;13.60;;
50012;SDS011;35901;48.694;9.476;2023-02-05T07:04:54;18.40;;;14.77;;
50012;SDS011;35901;48.694;9.476;2023-02-05T07:07:19;18.83;;;15.23;;
50012;SDS011;35901;48.694;9.476;2023-02-05T07:09:45;19.90;;;15.97;;
50012;SDS011;35901;48.694;9.476;2023-02-05T07:12:11;15.43;;;12.83;;
50012;SDS011;35901;48.694;9.476;2023-02-05T07:14:37;14.40;;;12.27;;
50012;SDS011;35901;48.694;9.476;2023-02-05T07:17:03;15.03;;;11.90;;
50012;SDS011;35901;48.694;9.476;2023-02-05T07:19:29;15.10;;;11.83;;
50012;SDS011;35901;48.694;9.476;2023-02-05T07:21:55;14.03;;;11.20;;
50012;SDS011;35901;48.694;9.476;2023-02-05T07:24:20;15.60;;;11.93;;
50012;SDS011;35901;48.694;9.476;2023-02-05T07:26:46;13.63;;;10.93;;
50012;SDS011;35901;48.694;9.476;2023-02-05T07:29:12;13.77;;;11.50;;
50012;SDS011;35901;48.694;9.476;2023-02-05T07:31:37;14.90;;;11.60;;
50012;SDS011;35901;48.694;9.476;2023-02-05T07:34:05;14.07;;;11.73;;
50012;SDS011;35901;48.694;9.476;2023-02-05T07:36:31;15.53;;;11.93;;
50012;SDS011;35901;48.694;9.476;2023-02-05T07:38:56;15.57;;;11.70;;
50012;SDS011;35901;48.694;9.476;2023-02-05T07:41:22;17.70;;;12.83;;
50012;SDS011;35901;48.694;9.476;2023-02-05T07:43:50;16.37;;;12.07;;
50012;SDS011;35901;48.694;9.476;2023-02-05T07:46:17;16.37;;;12.07;;
50012;SDS011;35901;48.694;9.476;2023-02-05T07:48:43;14.80;;;12.43;;
50012;SDS011;35901;48.694;9.476;2023-02-05T07:51:14;17.43;;;11.77;;
50012;SDS011;35901;48.694;9.476;2023-02-05T07:53:47;16.87;;;12.53;;
50012;SDS011;35901;48.694;9.476;2023-02-05T07:56:14;15.37;;;11.80;;
50012;SDS011;35901;48.694;9.476;2023-02-05T07:58:40;14.47;;;12.30;;
50012;SDS011;35901;48.694;9.476;2023-02-05T08:01:06;14.67;;;12.27;;
50012;SDS011;35901;48.694;9.476;2023-02-05T08:03:32;14.00;;;11.10;;
50012;SDS011;35901;48.694;9.476;2023-02-05T08:06:02;12.33;;;10.23;;
50012;SDS011;35901;48.694;9.476;2023-02-05T08:08:29;11.63;;;10.07;;
50012;SDS011;35901;48.694;9.476;2023-02-05T08:10:56;15.10;;;11.77;;
50012;SDS011;35901;48.694;9.476;2023-02-05T08:13:24;14.03;;;11.10;;
50012;SDS011;35901;48.694;9.476;2023-02-05T08:15:49;12.87;;;10.63;;
50012;SDS011;35901;48.694;9.476;2023-02-05T08:18:15;11.50;;;10.30;;
50012;SDS011;35901;48.694;9.476;2023-02-05T08:20:41;10.10;;;9.00;;
50012;SDS011;35901;48.694;9.476;2023-02-05T08:23:06;12.13;;;10.27;;
50012;SDS011;35901;48.694;9.476;2023-02-05T08:25:32;12.97;;;10.30;;
50012;SDS011;35901;48.694;9.476;2023-02-05T08:27:58;11.53;;;9.90;;
50012;SDS011;35901;48.694;9.476;2023-02-05T08:30:23;9.33;;;7.97;;
50012;SDS011;35901;48.694;9.476;2023-02-05T08:32:49;13.53;;;9.67;;
50012;SDS011;35901;48.694;9.476;2023-02-05T08:35:15;11.47;;;9.63;;
50012;SDS011;35901;48.694;9.476;2023-02-05T08:37:41;12.60;;;9.40;;
50012;SDS011;35901;48.694;9.476;2023-02-05T08:40:07;12.60;;;9.97;;
50012;SDS011;35901;48.694;9.476;2023-02-05T08:42:33;12.87;;;9.77;;
50012;SDS011;35901;48.694;9.476;2023-02-05T08:44:59;10.97;;;9.47;;
50012;SDS011;35901;48.694;9.476;2023-02-05T08:47:25;13.13;;;10.03;;
50012;SDS011;35901;48.694;9.476;2023-02-05T08:49:51;11.33;;;9.90;;
50012;SDS011;35901;48.694;9.476;2023-02-05T08:52:17;11.27;;;9.23;;
50012;SDS011;35901;48.694;9.476;2023-02-05T08:54:43;12.03;;;9.53;;
50012;SDS011;35901;48.694;9.476;2023-02-05T08:57:09;12.53;;;10.63;;
50012;SDS011;35901;48.694;9.476;2023-02-05T08:59:34;12.70;;;9.63;;
50012;SDS011;35901;48.694;9.476;2023-02-05T09:02:00;11.53;;;9.53;;
50012;SDS011;35901;48.694;9.476;2023-02-05T09:04:26;10.73;;;9.40;;
50012;SDS011;35901;48.694;9.476;2023-02-05T09:06:52;12.73;;;10.73;;
50012;SDS011;35901;48.694;9.476;2023-02-05T09:09:19;11.37;;;10.17;;
50012;SDS011;35901;48.694;9.476;2023-02-05T09:11:45;12.20;;;10.40;;
50012;SDS011;35901;48.694;9.476;2023-02-05T09:14:12;13.70;;;9.83;;
50012;SDS011;35901;48.694;9.476;2023-02-05T09:16:38;12.53;;;9.87;;
50012;SDS011;35901;48.694;9.476;2023-02-05T09:19:05;11.23;;;9.03;;
50012;SDS011;35901;48.694;9.476;2023-02-05T09:21:31;12.60;;;8.70;;
50012;SDS011;35901;48.694;9.476;2023-02-05T09:23:57;10.83;;;8.30;;
50012;SDS011;35901;48.694;9.476;2023-02-05T09:26:23;9.77;;;8.07;;
50012;SDS011;35901;48.694;9.476;2023-02-05T09:28:49;10.53;;;8.10;;
50012;SDS011;35901;48.694;9.476;2023-02-05T09:31:15;11.40;;;8.47;;
50012;SDS011;35901;48.694;9.476;2023-02-05T09:33:43;11.30;;;8.60;;
50012;SDS011;35901;48.694;9.476;2023-02-05T09:36:12;10.07;;;8.97;;
50012;SDS011;35901;48.694;9.476;2023-02-05T09:38:42;12.00;;;9.73;;
50012;SDS011;35901;48.694;9.476;2023-02-05T09:43:52;12.57;;;9.43;;
50012;SDS011;35901;48.694;9.476;2023-02-05T09:46:35;9.30;;;8.03;;
50012;SDS011;35901;48.694;9.476;2023-02-05T09:52:06;11.47;;;9.27;;
50012;SDS011;35901;48.694;9.476;2023-02-05T09:54:41;10.23;;;8.60;;
50012;SDS011;35901;48.694;9.476;2023-02-05T09:57:11;9.67;;;8.67;;
50012;SDS011;35901;48.694;9.476;2023-02-05T09:59:41;11.87;;;9.00;;
50012;SDS011;35901;48.694;9.476;2023-02-05T10:02:19;10.13;;;8.97;;
50012;SDS011;35901;48.694;9.476;2023-02-05T10:05:00;11.80;;;9.00;;
50012;SDS011;35901;48.694;9.476;2023-02-05T10:08:13;11.40;;;8.77;;
50012;SDS011;35901;48.694;9.476;2023-02-05T10:10:43;13.37;;;8.70;;
50012;SDS011;35901;48.694;9.476;2023-02-05T10:27:19;14.13;;;10.40;;
50012;SDS011;35901;48.694;9.476;2023-02-05T10:30:04;12.50;;;11.00;;
50012;SDS011;35901;48.694;9.476;2023-02-05T10:33:05;15.60;;;11.70;;
50012;SDS011;35901;48.694;9.476;2023-02-05T10:35:41;15.50;;;11.40;;
50012;SDS011;35901;48.694;9.476;2023-02-05T10:38:25;16.53;;;10.77;;
50012;SDS011;35901;48.694;9.476;2023-02-05T10:40:56;15.67;;;10.93;;
50012;SDS011;35901;48.694;9.476;2023-02-05T10:43:28;15.40;;;11.00;;
50012;SDS011;35901;48.694;9.476;2023-02-05T10:46:03;14.90;;;11.30;;
50012;SDS011;35901;48.694;9.476;2023-02-05T10:48:42;16.73;;;11.63;;
50012;SDS011;35901;48.694;9.476;2023-02-05T10:51:28;20.23;;;12.50;;
50012;SDS011;35901;48.694;9.476;2023-02-05T10:54:17;21.73;;;14.23;;
50012;SDS011;35901;48.694;9.476;2023-02-05T10:56:52;17.93;;;13.50;;
50012;SDS011;35901;48.694;9.476;2023-02-05T10:59:28;21.27;;;13.93;;
50012;SDS011;35901;48.694;9.476;2023-02-05T11:01:57;17.53;;;13.13;;
50012;SDS011;35901;48.694;9.476;2023-02-05T11:07:11;16.03;;;11.20;;
50012;SDS011;35901;48.694;9.476;2023-02-05T11:09:48;13.97;;;10.87;;
50012;SDS011;35901;48.694;9.476;2023-02-05T11:12:32;18.17;;;11.97;;
50012;SDS011;35901;48.694;9.476;2023-02-05T11:14:59;13.87;;;10.73;;
50012;SDS011;35901;48.694;9.476;2023-02-05T11:17:33;17.73;;;12.10;;
50012;SDS011;35901;48.694;9.476;2023-02-05T11:20:03;16.23;;;12.50;;
50012;SDS011;35901;48.694;9.476;2023-02-05T11:22:33;19.77;;;11.93;;
50012;SDS011;35901;48.694;9.476;2023-02-05T11:25:04;19.60;;;11.90;;
50012;SDS011;35901;48.694;9.476;2023-02-05T11:27:35;18.17;;;11.53;;
50012;SDS011;35901;48.694;9.476;2023-02-05T11:32:58;17.53;;;11.80;;
50012;SDS011;35901;48.694;9.476;2023-02-05T11:35:40;14.10;;;10.30;;
50012;SDS011;35901;48.694;9.476;2023-02-05T11:38:55;16.07;;;10.07;;
50012;SDS011;35901;48.694;9.476;2023-02-05T11:41:13;13.83;;;9.37;;
50012;SDS011;35901;48.694;9.476;2023-02-05T11:44:16;14.87;;;9.90;;
50012;SDS011;35901;48.694;9.476;2023-02-05T11:46:49;17.70;;;11.23;;
50012;SDS011;35901;48.694;9.476;2023-02-05T11:49:21;17.90;;;12.37;;
50012;SDS011;35901;48.694;9.476;2023-02-05T11:51:53;17.43;;;11.00;;
50012;SDS011;35901;48.694;9.476;2023-02-05T11:54:28;19.37;;;13.67;;
50012;SDS011;35901;48.694;9.476;2023-02-05T11:57:08;20.83;;;13.43;;
50012;SDS011;35901;48.694;9.476;2023-02-05T12:02:37;15.40;;;11.27;;
50012;SDS011;35901;48.694;9.476;2023-02-05T12:07:46;19.83;;;11.10;;
50012;SDS011;35901;48.694;9.476;2023-02-05T12:10:20;15.70;;;11.00;;
50012;SDS011;35901;48.694;9.476;2023-02-05T12:12:57;17.33;;;12.10;;
50012;SDS011;35901;48.694;9.476;2023-02-05T12:15:45;24.43;;;13.90;;
50012;SDS011;35901;48.694;9.476;2023-02-05T12:18:41;23.13;;;14.07;;
50012;SDS011;35901;48.694;9.476;2023-02-05T12:26:50;25.03;;;15.47;;
50012;SDS011;35901;48.694;9.476;2023-02-05T12:29:40;36.17;;;22.87;;
50012;SDS011;35901;48.694;9.476;2023-02-05T12:40:56;20.97;;;13.90;;
50012;SDS011;35901;48.694;9.476;2023-02-05T12:43:47;19.13;;;12.90;;
50012;SDS011;35901;48.694;9.476;2023-02-05T12:54:29;17.17;;;12.00;;
50012;SDS011;35901;48.694;9.476;2023-02-05T12:57:11;17.47;;;10.40;;
50012;SDS011;35901;48.694;9.476;2023-02-05T12:59:44;20.00;;;10.77;;
50012;SDS011;35901;48.694;9.476;2023-02-05T13:02:28;19.50;;;11.70;;
50012;SDS011;35901;48.694;9.476;2023-02-05T13:07:47;18.63;;;10.60;;
50012;SDS011;35901;48.694;9.476;2023-02-05T13:10:22;19.37;;;10.43;;
50012;SDS011;35901;48.694;9.476;2023-02-05T13:12:59;17.90;;;11.20;;
50012;SDS011;35901;48.694;9.476;2023-02-05T13:15:38;17.43;;;12.73;;
50012;SDS011;35901;48.694;9.476;2023-02-05T13:20:45;21.80;;;14.13;;
50012;SDS011;35901;48.694;9.476;2023-02-05T13:23:34;21.10;;;13.43;;
50012;SDS011;35901;48.694;9.476;2023-02-05T13:26:27;20.30;;;12.27;;
50012;SDS011;35901;48.694;9.476;2023-02-05T13:29:15;20.03;;;12.63;;
50012;SDS011;35901;48.694;9.476;2023-02-05T13:31:42;27.07;;;15.60;;
50012;SDS011;35901;48.694;9.476;2023-02-05T13:34:17;26.13;;;13.50;;
50012;SDS011;35901;48.694;9.476;2023-02-05T13:36:49;19.33;;;13.43;;
50012;SDS011;35901;48.694;9.476;2023-02-05T13:44:55;22.97;;;12.47;;
50012;SDS011;35901;48.694;9.476;2023-02-05T13:47:52;22.10;;;12.43;;
50012;SDS011;35901;48.694;9.476;2023-02-05T13:59:01;17.57;;;11.87;;
50012;SDS011;35901;48.694;9.476;2023-02-05T14:01:35;14.20;;;11.50;;
50012;SDS011;35901;48.694;9.476;2023-02-05T14:04:15;14.80;;;10.80;;
50012;SDS011;35901;48.694;9.476;2023-02-05T14:06:55;12.57;;;9.57;;
50012;SDS011;35901;48.694;9.476;2023-02-05T14:09:24;11.07;;;9.03;;
50012;SDS011;35901;48.694;9.476;2023-02-05T14:12:02;10.73;;;8.70;;
50012;SDS011;35901;48.694;9.476;2023-02-05T14:14:39;9.97;;;8.13;;
50012;SDS011;35901;48.694;9.476;2023-02-05T14:19:57;10.97;;;8.33;;
50012;SDS011;35901;48.694;9.476;2023-02-05T14:22:35;12.03;;;8.83;;
50012;SDS011;35901;48.694;9.476;2023-02-05T14:25:10;9.97;;;6.93;;
50012;SDS011;35901;48.694;9.476;2023-02-05T14:28:03;9.47;;;7.67;;
50012;SDS011;35901;48.694;9.476;2023-02-05T14:30:48;9.30;;;6.97;;
50012;SDS011;35901;48.694;9.476;2023-02-05T14:33:29;9.77;;;7.87;;
50012;SDS011;35901;48.694;9.476;2023-02-05T14:38:45;7.60;;;6.17;;
50012;SDS011;35901;48.694;9.476;2023-02-05T14:41:21;10.30;;;7.43;;
50012;SDS011;35901;48.694;9.476;2023-02-05T14:46:35;9.03;;;7.23;;
50012;SDS011;35901;48.694;9.476;2023-02-05T14:52:01;11.77;;;7.57;;
50012;SDS011;35901;48.694;9.476;2023-02-05T14:57:17;8.43;;;7.13;;
50012;SDS011;35901;48.694;9.476;2023-02-05T14:59:53;9.27;;;7.10;;
50012;SDS011;35901;48.694;9.476;2023-02-05T15:05:41;8.90;;;7.37;;
50012;SDS011;35901;48.694;9.476;2023-02-05T15:08:15;10.97;;;8.50;;
50012;SDS011;35901;48.694;9.476;2023-02-05T15:13:29;8.57;;;7.27;;
50012;SDS011;35901;48.694;9.476;2023-02-05T15:18:40;7.90;;;6.67;;
50012;SDS011;35901;48.694;9.476;2023-02-05T15:21:22;8.83;;;7.07;;
50012;SDS011;35901;48.694;9.476;2023-02-05T15:24:10;8.50;;;7.17;;
50012;SDS011;35901;48.694;9.476;2023-02-05T15:26:55;8.73;;;6.13;;
50012;SDS011;35901;48.694;9.476;2023-02-05T15:29:50;7.77;;;6.67;;
50012;SDS011;35901;48.694;9.476;2023-02-05T15:32:32;12.37;;;9.13;;
50012;SDS011;35901;48.694;9.476;2023-02-05T15:35:12;9.17;;;7.63;;
50012;SDS011;35901;48.694;9.476;2023-02-05T15:38:00;24.17;;;14.17;;
50012;SDS011;35901;48.694;9.476;2023-02-05T15:40:46;12.37;;;9.30;;
50012;SDS011;35901;48.694;9.476;2023-02-05T15:43:18;11.57;;;9.50;;
50012;SDS011;35901;48.694;9.476;2023-02-05T15:45:57;10.80;;;8.43;;
50012;SDS011;35901;48.694;9.476;2023-02-05T15:48:27;19.60;;;17.67;;
50012;SDS011;35901;48.694;9.476;2023-02-05T15:51:03;11.27;;;9.87;;
50012;SDS011;35901;48.694;9.476;2023-02-05T15:53:47;84.17;;;74.53;;
50012;SDS011;35901;48.694;9.476;2023-02-05T15:56:20;62.07;;;37.57;;
50012;SDS011;35901;48.694;9.476;2023-02-05T15:58:53;31.30;;;24.93;;
50012;SDS011;35901;48.694;9.476;2023-02-05T16:03:55;19.90;;;16.73;;
50012;SDS011;35901;48.694;9.476;2023-02-05T16:06:21;16.57;;;14.87;;
50012;SDS011;35901;48.694;9.476;2023-02-05T16:08:48;14.50;;;13.00;;
50012;SDS011;35901;48.694;9.476;2023-02-05T16:11:32;12.90;;;11.33;;
50012;SDS011;35901;48.694;9.476;2023-02-05T16:14:02;11.20;;;9.97;;
50012;SDS011;35901;48.694;9.476;2023-02-05T16:16:32;10.47;;;9.03;;
50012;SDS011;35901;48.694;9.476;2023-02-05T16:19:01;8.43;;;7.43;;
50012;SDS011;35901;48.694;9.476;2023-02-05T16:21:31;9.93;;;7.50;;
50012;SDS011;35901;48.694;9.476;2023-02-05T16:24:05;8.93;;;7.07;;
50012;SDS011;35901;48.694;9.476;2023-02-05T16:26:57;8.17;;;6.50;;
50012;SDS011;35901;48.694;9.476;2023-02-05T16:29:29;7.23;;;6.00;;
50012;SDS011;35901;48.694;9.476;2023-02-05T16:32:06;7.30;;;6.33;;
50012;SDS011;35901;48.694;9.476;2023-02-05T16:34:44;8.80;;;6.80;;
50012;SDS011;35901;48.694;9.476;2023-02-05T16:37:13;8.40;;;6.23;;
50012;SDS011;35901;48.694;9.476;2023-02-05T16:39:42;7.87;;;7.07;;
50012;SDS011;35901;48.694;9.476;2023-02-05T16:44:50;9.87;;;7.20;;
50012;SDS011;35901;48.694;9.476;2023-02-05T16:47:34;10.23;;;7.90;;
50012;SDS011;35901;48.694;9.476;2023-02-05T16:50:00;10.70;;;8.10;;
50012;SDS011;35901;48.694;9.476;2023-02-05T16:53:10;9.10;;;7.57;;